createdAt,value
2023-05-02T00:02:13.708Z,12.35
2023-05-02T00:04:40.935Z,8.07
2023-05-02T00:07:08.302Z,7.03
2023-05-02T00:09:35.272Z,8.73
2023-05-02T00:12:02.660Z,6.75
2023-05-02T00:14:33.029Z,7.75
2023-05-02T00:17:00.317Z,7.20
2023-05-02T00:19:27.283Z,4.97
2023-05-02T00:21:54.768Z,7.13
2023-05-02T00:24:21.722Z,5.75
2023-05-02T00:26:49.798Z,6.90
2023-05-02T00:29:17.313Z,4.28
2023-05-02T00:31:44.826Z,7.75
2023-05-02T00:34:11.738Z,5.43
2023-05-02T00:36:38.979Z,8.73
2023-05-02T00:39:05.941Z,5.47
2023-05-02T00:41:33.176Z,10.63
2023-05-02T00:44:00.120Z,5.68
2023-05-02T00:46:27.937Z,3.25
2023-05-02T00:48:54.983Z,3.08
2023-05-02T00:51:22.314Z,3.70
2023-05-02T00:53:49.652Z,6.10
2023-05-02T00:56:16.894Z,8.32
2023-05-02T00:58:44.552Z,4.38
2023-05-02T01:01:29.801Z,5.75
2023-05-02T01:03:59.956Z,5.57
2023-05-02T01:06:42.785Z,3.42
2023-05-02T01:09:18.890Z,4.60
2023-05-02T01:12:09.489Z,4.15
2023-05-02T01:14:42.699Z,6.20
2023-05-02T01:17:13.317Z,3.92
2023-05-02T01:19:50.978Z,6.43
2023-05-02T01:22:20.171Z,5.22
2023-05-02T01:24:53.093Z,6.45
2023-05-02T01:27:51.491Z,5.75
2023-05-02T01:30:21.455Z,4.20
2023-05-02T01:32:51.635Z,4.65
2023-05-02T01:35:20.189Z,4.00
2023-05-02T01:37:49.721Z,7.85
2023-05-02T01:40:20.574Z,4.20
2023-05-02T01:42:50.105Z,3.75
2023-05-02T01:45:18.693Z,5.70
2023-05-02T01:47:46.774Z,4.57
2023-05-02T01:50:17.566Z,5.28
2023-05-02T01:52:47.446Z,5.75
2023-05-02T01:55:17.519Z,7.38
2023-05-02T01:57:46.686Z,4.78
2023-05-02T02:00:16.356Z,4.43
2023-05-02T02:02:45.249Z,6.43
2023-05-02T02:05:14.130Z,4.47
2023-05-02T02:07:42.862Z,5.95
2023-05-02T02:10:10.169Z,4.43
2023-05-02T02:12:49.063Z,7.20
2023-05-02T02:15:16.008Z,4.95
2023-05-02T02:17:57.396Z,6.85
2023-05-02T02:20:25.780Z,8.30
2023-05-02T02:22:54.599Z,6.80
2023-05-02T02:25:21.945Z,6.53
2023-05-02T02:27:49.358Z,5.45
2023-05-02T02:30:16.720Z,4.30
2023-05-02T02:32:44.003Z,8.30
2023-05-02T02:35:11.569Z,5.18
2023-05-02T02:37:45.868Z,3.90
2023-05-02T02:40:46.133Z,5.47
2023-05-02T02:43:37.901Z,5.25
2023-05-02T02:46:16.478Z,5.15
2023-05-02T02:48:55.863Z,6.18
2023-05-02T02:51:32.039Z,4.85
2023-05-02T02:54:34.906Z,5.65
2023-05-02T02:57:22.258Z,3.42
2023-05-02T03:00:07.126Z,5.18
2023-05-02T03:02:37.115Z,6.03
2023-05-02T03:05:07.219Z,5.55
2023-05-02T03:07:34.570Z,5.03
2023-05-02T03:10:05.003Z,4.90
2023-05-02T03:12:32.309Z,5.85
2023-05-02T03:15:41.000Z,4.78
2023-05-02T03:18:08.153Z,7.25
2023-05-02T03:20:35.658Z,5.47
2023-05-02T03:23:03.157Z,5.70
2023-05-02T03:25:30.496Z,6.75
2023-05-02T03:27:58.142Z,4.60
2023-05-02T03:30:25.514Z,4.25
2023-05-02T03:32:52.768Z,6.35
2023-05-02T03:35:20.047Z,7.93
2023-05-02T03:37:47.048Z,6.05
2023-05-02T03:40:14.891Z,4.68
2023-05-02T03:42:42.307Z,8.65
2023-05-02T03:45:10.589Z,3.78
2023-05-02T03:47:37.688Z,5.28
2023-05-02T03:50:05.468Z,4.78
2023-05-02T03:52:34.112Z,6.43
2023-05-02T03:55:02.038Z,4.93
2023-05-02T03:57:32.158Z,7.80
2023-05-02T04:00:00.774Z,5.95
2023-05-02T04:02:28.059Z,6.97
2023-05-02T04:04:55.722Z,7.90
2023-05-02T04:07:22.745Z,10.52
2023-05-02T04:09:49.976Z,6.05
2023-05-02T04:12:17.158Z,4.97
2023-05-02T04:14:44.390Z,6.00
2023-05-02T04:17:11.473Z,7.78
2023-05-02T04:19:38.994Z,4.80
2023-05-02T04:22:06.269Z,5.63
2023-05-02T04:24:33.607Z,8.95
2023-05-02T04:27:00.597Z,5.55
2023-05-02T04:29:27.906Z,4.97
2023-05-02T04:31:54.931Z,7.40
2023-05-02T04:34:22.125Z,7.80
2023-05-02T04:36:49.068Z,5.70
2023-05-02T04:39:16.289Z,7.57
2023-05-02T04:41:43.532Z,6.75
2023-05-02T04:44:10.712Z,5.80
2023-05-02T04:46:37.801Z,6.32
2023-05-02T04:49:05.486Z,6.60
2023-05-02T04:51:32.724Z,8.98
2023-05-02T04:53:59.964Z,7.03
2023-05-02T04:56:26.991Z,8.02
2023-05-02T04:58:54.324Z,6.40
2023-05-02T05:01:21.572Z,8.70
2023-05-02T05:03:49.138Z,8.68
2023-05-02T05:06:16.540Z,4.53
2023-05-02T05:08:45.651Z,6.07
2023-05-02T05:11:12.906Z,6.38
2023-05-02T05:13:40.457Z,9.02
2023-05-02T05:16:07.835Z,7.32
2023-05-02T05:18:40.603Z,6.93
2023-05-02T05:21:08.298Z,9.52
2023-05-02T05:23:36.786Z,10.05
2023-05-02T05:26:10.791Z,9.48
2023-05-02T05:28:38.587Z,6.28
2023-05-02T05:31:10.799Z,6.85
2023-05-02T05:33:39.144Z,8.35
2023-05-02T05:36:07.562Z,9.10
2023-05-02T05:38:35.390Z,7.18
2023-05-02T05:41:02.955Z,7.70
2023-05-02T05:43:30.651Z,7.88
2023-05-02T05:45:57.652Z,9.10
2023-05-02T05:48:24.921Z,10.85
2023-05-02T05:50:54.951Z,6.72
2023-05-02T05:53:22.728Z,9.45
2023-05-02T05:55:49.659Z,4.95
2023-05-02T05:58:17.157Z,7.13
2023-05-02T06:00:44.166Z,7.22
2023-05-02T06:03:11.727Z,5.55
2023-05-02T06:05:38.809Z,7.90
2023-05-02T06:08:06.137Z,4.93
2023-05-02T06:10:33.101Z,10.20
2023-05-02T06:13:00.482Z,6.70
2023-05-02T06:15:27.449Z,6.78
2023-05-02T06:17:54.892Z,7.82
2023-05-02T06:20:22.000Z,8.15
2023-05-02T06:22:49.235Z,8.10
2023-05-02T06:25:16.378Z,9.48
2023-05-02T06:27:43.610Z,9.93
2023-05-02T06:30:11.632Z,10.00
2023-05-02T06:32:39.069Z,6.35
2023-05-02T06:35:06.847Z,5.60
2023-05-02T06:37:37.819Z,9.88
2023-05-02T06:40:05.471Z,8.90
2023-05-02T06:42:32.728Z,8.48
2023-05-02T06:44:59.698Z,7.80
2023-05-02T06:47:26.945Z,7.40
2023-05-02T06:49:54.021Z,6.63
2023-05-02T06:52:21.235Z,8.35
2023-05-02T06:54:48.311Z,7.22
2023-05-02T06:57:15.917Z,7.32
2023-05-02T06:59:43.213Z,7.45
2023-05-02T07:02:11.306Z,7.13
2023-05-02T07:04:38.488Z,15.65
2023-05-02T07:07:06.611Z,7.72
2023-05-02T07:09:33.580Z,6.20
2023-05-02T07:12:04.512Z,8.57
2023-05-02T07:14:33.111Z,11.27
2023-05-02T07:17:00.919Z,15.43
2023-05-02T07:19:27.945Z,8.50
2023-05-02T07:21:55.472Z,7.80
2023-05-02T07:24:22.411Z,6.68
2023-05-02T07:26:49.617Z,7.72
2023-05-02T07:29:16.559Z,8.65
2023-05-02T07:31:43.940Z,10.02
2023-05-02T07:34:10.898Z,8.13
2023-05-02T07:36:39.064Z,6.13
2023-05-02T07:39:06.001Z,6.90
2023-05-02T07:41:33.350Z,9.95
2023-05-02T07:44:00.425Z,9.55
2023-05-02T07:46:27.710Z,7.65
2023-05-02T07:48:54.677Z,7.07
2023-05-02T07:51:22.232Z,6.82
2023-05-02T07:53:58.529Z,7.45
2023-05-02T07:56:26.010Z,7.72
2023-05-02T07:58:53.048Z,5.75
2023-05-02T08:01:20.635Z,7.93
2023-05-02T08:03:48.740Z,7.40
2023-05-02T08:06:16.281Z,7.55
2023-05-02T08:08:43.244Z,7.25
2023-05-02T08:11:10.499Z,7.57
2023-05-02T08:13:37.415Z,6.57
2023-05-02T08:16:04.925Z,7.13
2023-05-02T08:18:32.112Z,8.75
2023-05-02T08:20:59.393Z,6.60
2023-05-02T08:23:26.344Z,7.22
2023-05-02T08:25:54.155Z,10.98
2023-05-02T08:28:21.627Z,6.93
2023-05-02T08:30:49.143Z,12.07
2023-05-02T08:33:16.289Z,7.70
2023-05-02T08:35:43.919Z,5.15
2023-05-02T08:38:11.300Z,7.28
2023-05-02T08:40:42.885Z,8.45
2023-05-02T08:43:12.087Z,10.27
2023-05-02T08:45:44.496Z,5.55
2023-05-02T08:48:13.912Z,8.07
2023-05-02T08:50:44.546Z,9.93
2023-05-02T08:53:13.664Z,6.30
2023-05-02T08:55:42.082Z,5.85
2023-05-02T08:58:10.795Z,8.43
2023-05-02T09:00:42.077Z,6.40
2023-05-02T09:03:45.610Z,7.97
2023-05-02T09:08:44.992Z,8.18
2023-05-02T09:11:13.259Z,7.03
2023-05-02T09:13:48.308Z,8.35
2023-05-02T09:16:16.549Z,7.55
2023-05-02T09:19:01.928Z,6.07
2023-05-02T09:21:38.013Z,6.22
2023-05-02T09:24:17.376Z,5.50
2023-05-02T09:27:01.025Z,6.80
2023-05-02T09:29:30.781Z,5.78
2023-05-02T09:31:58.402Z,5.63
2023-05-02T09:34:25.400Z,6.43
2023-05-02T09:36:55.883Z,6.82
2023-05-02T09:39:26.400Z,6.82
2023-05-02T09:41:54.298Z,5.97
2023-05-02T09:44:26.782Z,7.05
2023-05-02T09:46:57.469Z,6.32
2023-05-02T09:49:47.142Z,5.03
2023-05-02T09:52:22.265Z,5.32
2023-05-02T09:54:53.191Z,5.90
2023-05-02T09:57:20.779Z,7.80
2023-05-02T09:59:58.289Z,4.72
2023-05-02T10:02:26.158Z,7.50
2023-05-02T10:04:56.922Z,6.93
2023-05-02T10:07:25.139Z,7.72
2023-05-02T10:09:55.019Z,4.18
2023-05-02T10:12:26.778Z,4.45
2023-05-02T10:15:01.054Z,5.10
2023-05-02T10:17:39.285Z,3.75
2023-05-02T10:20:08.476Z,4.88
2023-05-02T10:22:37.219Z,4.63
2023-05-02T10:25:04.793Z,2.90
2023-05-02T10:27:33.123Z,6.45
2023-05-02T10:30:01.227Z,4.15
2023-05-02T10:32:29.536Z,3.65
2023-05-02T10:35:07.095Z,4.18
2023-05-02T10:37:38.388Z,5.75
2023-05-02T10:40:06.548Z,5.18
2023-05-02T10:42:39.626Z,4.47
2023-05-02T10:45:29.634Z,4.55
2023-05-02T10:48:20.941Z,6.15
2023-05-02T10:50:54.767Z,5.60
2023-05-02T10:53:29.619Z,4.68
2023-05-02T10:56:23.061Z,5.43
2023-05-02T10:58:52.463Z,5.10
2023-05-02T11:01:28.715Z,3.13
2023-05-02T11:04:03.528Z,5.88
2023-05-02T11:06:34.304Z,5.07
2023-05-02T11:09:14.727Z,4.03
2023-05-02T11:11:43.734Z,3.55
2023-05-02T11:14:14.074Z,3.78
2023-05-02T11:17:04.523Z,4.72
2023-05-02T11:19:58.306Z,4.53
2023-05-02T11:22:27.233Z,7.28
2023-05-02T11:24:54.859Z,3.75
2023-05-02T11:27:31.135Z,3.63
2023-05-02T11:30:05.751Z,2.72
2023-05-02T11:32:49.227Z,3.28
2023-05-02T11:35:20.260Z,5.32
2023-05-02T11:38:04.743Z,3.35
2023-05-02T11:40:32.471Z,3.33
2023-05-02T11:43:00.680Z,5.40
2023-05-02T11:45:37.270Z,2.88
2023-05-02T11:48:08.196Z,4.68
2023-05-02T11:50:49.807Z,3.35
2023-05-02T11:53:23.358Z,4.10
2023-05-02T11:55:56.391Z,6.85
2023-05-02T11:58:25.588Z,4.90
2023-05-02T12:00:53.896Z,4.88
2023-05-02T12:03:25.222Z,4.63
2023-05-02T12:05:52.896Z,4.88
2023-05-02T12:08:38.455Z,4.38
2023-05-02T12:11:06.806Z,6.45
2023-05-02T12:13:34.095Z,3.65
2023-05-02T12:16:01.839Z,4.85
2023-05-02T12:18:28.967Z,3.75
2023-05-02T12:20:56.919Z,2.67
2023-05-02T12:23:26.434Z,6.57
2023-05-02T12:25:54.105Z,3.17
2023-05-02T12:28:23.362Z,2.83
2023-05-02T12:30:51.874Z,4.00
2023-05-02T12:33:19.396Z,5.53
2023-05-02T12:35:47.589Z,3.40
2023-05-02T12:38:22.969Z,5.55
2023-05-02T12:40:57.783Z,5.18
2023-05-02T12:43:24.933Z,2.70
2023-05-02T12:46:10.134Z,3.17
2023-05-02T12:48:37.160Z,3.72
2023-05-02T12:51:04.969Z,4.03
2023-05-02T12:53:42.212Z,3.25
2023-05-02T12:56:10.728Z,2.03
2023-05-02T12:58:43.088Z,3.88
2023-05-02T13:01:10.871Z,5.18
2023-05-02T13:03:38.010Z,2.35
2023-05-02T13:06:06.041Z,4.55
2023-05-02T13:08:34.329Z,5.03
2023-05-02T13:11:02.940Z,3.80
2023-05-02T13:13:30.469Z,2.85
2023-05-02T13:15:57.750Z,5.90
2023-05-02T13:18:25.086Z,3.70
2023-05-02T13:20:52.613Z,3.72
2023-05-02T13:23:19.621Z,3.47
2023-05-02T13:25:46.865Z,3.70
2023-05-02T13:28:13.800Z,4.72
2023-05-02T13:30:41.261Z,4.65
2023-05-02T13:33:08.299Z,4.45
2023-05-02T13:35:35.738Z,6.32
2023-05-02T13:38:03.458Z,3.03
2023-05-02T13:40:30.846Z,4.00
2023-05-02T13:42:57.873Z,3.88
2023-05-02T13:45:25.356Z,7.25
2023-05-02T13:47:52.343Z,4.53
2023-05-02T13:50:19.909Z,3.92
2023-05-02T13:52:49.064Z,2.97
2023-05-02T13:55:17.082Z,3.15
2023-05-02T13:57:44.057Z,3.75
2023-05-02T14:00:12.130Z,3.97
2023-05-02T14:02:39.700Z,3.47
2023-05-02T14:05:07.834Z,4.47
2023-05-02T14:07:34.847Z,4.32
2023-05-02T14:10:02.335Z,3.80
2023-05-02T14:12:29.579Z,5.03
2023-05-02T14:14:56.861Z,4.05
2023-05-02T14:17:25.312Z,4.05
2023-05-02T14:19:52.991Z,4.50
2023-05-02T14:22:19.986Z,4.30
2023-05-02T14:24:47.287Z,4.15
2023-05-02T14:27:18.231Z,5.63
2023-05-02T14:29:46.374Z,5.18
2023-05-02T14:32:14.201Z,4.20
2023-05-02T14:34:41.926Z,5.45
2023-05-02T14:37:09.283Z,3.72
2023-05-02T14:39:37.163Z,4.82
2023-05-02T14:42:04.611Z,3.90
2023-05-02T14:44:32.181Z,4.07
2023-05-02T14:46:59.553Z,5.50
2023-05-02T14:49:27.571Z,3.58
2023-05-02T14:51:56.310Z,4.35
2023-05-02T14:54:30.305Z,3.60
2023-05-02T14:56:58.063Z,4.93
2023-05-02T14:59:28.921Z,6.00
2023-05-02T15:01:56.225Z,3.75
2023-05-02T15:04:26.217Z,5.00
2023-05-02T15:06:54.770Z,3.78
2023-05-02T15:09:22.463Z,5.38
2023-05-02T15:11:49.526Z,4.15
2023-05-02T15:14:16.837Z,3.95
2023-05-02T15:16:44.055Z,3.47
2023-05-02T15:19:11.464Z,6.50
2023-05-02T15:21:38.402Z,5.82
2023-05-02T15:24:06.250Z,7.30
2023-05-02T15:26:33.414Z,4.43
2023-05-02T15:29:00.915Z,4.03
2023-05-02T15:31:28.041Z,6.05
2023-05-02T15:33:55.760Z,6.15
2023-05-02T15:36:28.942Z,8.10
2023-05-02T15:38:57.118Z,12.10
2023-05-02T15:41:27.052Z,15.95
2023-05-02T15:43:54.705Z,9.73
2023-05-02T15:46:21.685Z,10.68
2023-05-02T15:48:49.288Z,7.13
2023-05-02T15:51:16.552Z,6.82
2023-05-02T15:53:45.002Z,5.00
2023-05-02T15:56:12.781Z,4.78
2023-05-02T15:58:40.458Z,5.35
2023-05-02T16:01:07.694Z,7.18
2023-05-02T16:03:36.957Z,6.90
2023-05-02T16:06:06.509Z,5.45
2023-05-02T16:08:33.841Z,6.25
2023-05-02T16:11:01.921Z,9.00
2023-05-02T16:13:29.500Z,7.25
2023-05-02T16:15:56.565Z,5.13
2023-05-02T16:18:28.463Z,5.97
2023-05-02T16:20:57.068Z,5.30
2023-05-02T16:23:25.687Z,7.30
2023-05-02T16:26:02.129Z,6.05
2023-05-02T16:28:29.724Z,6.65
2023-05-02T16:30:56.844Z,6.55
2023-05-02T16:33:24.255Z,10.18
2023-05-02T16:36:01.409Z,8.63
2023-05-02T16:38:28.651Z,7.57
2023-05-02T16:40:55.646Z,7.75
2023-05-02T16:43:23.146Z,8.38
2023-05-02T16:46:03.357Z,8.13
2023-05-02T16:48:30.795Z,8.40
2023-05-02T16:50:58.591Z,8.18
2023-05-02T16:53:27.037Z,10.77
2023-05-02T16:55:54.596Z,8.02
2023-05-02T16:58:22.196Z,12.63
2023-05-02T17:00:49.203Z,15.50
2023-05-02T17:03:16.744Z,16.63
2023-05-02T17:05:43.867Z,20.15
2023-05-02T17:08:11.153Z,19.17
2023-05-02T17:10:38.134Z,16.15
2023-05-02T17:13:05.921Z,12.18
2023-05-02T17:15:38.503Z,11.02
2023-05-02T17:18:06.354Z,11.55
2023-05-02T17:20:33.595Z,10.13
2023-05-02T17:23:02.268Z,12.38
2023-05-02T17:25:30.172Z,14.98
2023-05-02T17:27:57.471Z,10.38
2023-05-02T17:30:25.257Z,10.82
2023-05-02T17:32:52.824Z,6.47
2023-05-02T17:35:19.851Z,8.60
2023-05-02T17:37:47.075Z,9.30
2023-05-02T17:40:14.137Z,7.85
2023-05-02T17:42:46.397Z,7.47
2023-05-02T17:45:13.730Z,7.35
2023-05-02T17:47:41.140Z,10.90
2023-05-02T17:50:08.784Z,14.05
2023-05-02T17:52:36.313Z,10.38
2023-05-02T17:55:04.093Z,10.32
2023-05-02T17:57:31.391Z,10.20
2023-05-02T17:59:59.477Z,7.80
2023-05-02T18:02:27.632Z,6.55
2023-05-02T18:04:54.919Z,6.18
2023-05-02T18:07:25.502Z,6.50
2023-05-02T18:09:52.635Z,5.15
2023-05-02T18:12:20.160Z,5.32
2023-05-02T18:14:47.224Z,4.43
2023-05-02T18:17:14.471Z,7.07
2023-05-02T18:19:41.701Z,5.15
2023-05-02T18:22:09.252Z,5.13
2023-05-02T18:24:36.312Z,7.97
2023-05-02T18:27:03.975Z,8.48
2023-05-02T18:29:31.235Z,5.03
2023-05-02T18:31:58.862Z,6.85
2023-05-02T18:34:25.928Z,7.55
2023-05-02T18:37:31.295Z,6.65
2023-05-02T18:40:01.383Z,9.13
2023-05-02T18:42:29.079Z,8.32
2023-05-02T18:44:56.475Z,10.60
2023-05-02T18:47:24.738Z,9.32
2023-05-02T18:49:52.106Z,11.45
2023-05-02T18:52:19.373Z,5.82
2023-05-02T18:54:46.329Z,4.63
2023-05-02T18:57:13.639Z,4.60
2023-05-02T18:59:40.796Z,7.05
2023-05-02T19:02:08.381Z,4.95
2023-05-02T19:04:35.387Z,5.43
2023-05-02T19:07:02.609Z,4.50
2023-05-02T19:09:29.619Z,4.68
2023-05-02T19:11:57.155Z,5.97
2023-05-02T19:14:24.200Z,6.78
2023-05-02T19:16:51.720Z,6.28
2023-05-02T19:19:18.733Z,4.47
2023-05-02T19:21:48.055Z,4.15
2023-05-02T19:24:15.084Z,4.55
2023-05-02T19:26:42.564Z,4.90
2023-05-02T19:29:09.660Z,6.55
2023-05-02T19:31:38.824Z,7.63
2023-05-02T19:34:06.029Z,22.98
2023-05-02T19:36:33.320Z,15.65
2023-05-02T19:39:00.261Z,5.95
2023-05-02T19:41:27.636Z,4.55
2023-05-02T19:43:56.653Z,5.32
2023-05-02T19:46:24.176Z,5.80
2023-05-02T19:48:51.244Z,5.65
2023-05-02T19:51:25.240Z,6.35
2023-05-02T19:53:58.464Z,6.70
2023-05-02T19:56:27.272Z,6.85
2023-05-02T19:58:54.875Z,6.40
2023-05-02T20:01:22.345Z,7.70
2023-05-02T20:03:49.419Z,11.13
2023-05-02T20:06:16.773Z,10.32
2023-05-02T20:08:43.812Z,6.25
2023-05-02T20:11:11.046Z,6.57
2023-05-02T20:13:38.426Z,7.13
2023-05-02T20:16:05.723Z,4.25
2023-05-02T20:18:32.719Z,7.35
2023-05-02T20:21:00.323Z,5.13
2023-05-02T20:23:30.084Z,5.18
2023-05-02T20:25:57.370Z,6.63
2023-05-02T20:28:25.749Z,7.05
2023-05-02T20:30:53.339Z,4.53
2023-05-02T20:33:23.104Z,7.85
2023-05-02T20:35:55.583Z,5.83
2023-05-02T20:38:24.209Z,4.95
2023-05-02T20:40:51.734Z,5.80
2023-05-02T20:43:18.924Z,4.88
2023-05-02T20:45:46.771Z,8.07
2023-05-02T20:48:17.146Z,8.65
2023-05-02T20:50:53.015Z,8.05
2023-05-02T20:53:22.360Z,3.92
2023-05-02T20:55:50.990Z,2.20
2023-05-02T20:58:18.208Z,3.55
2023-05-02T21:00:52.340Z,3.05
2023-05-02T21:03:19.871Z,3.35
2023-05-02T21:05:59.131Z,3.05
2023-05-02T21:08:26.121Z,4.68
2023-05-02T21:10:53.955Z,3.63
2023-05-02T21:13:22.478Z,4.82
2023-05-02T21:15:49.835Z,3.38
2023-05-02T21:18:16.954Z,4.47
2023-05-02T21:20:44.378Z,3.92
2023-05-02T21:23:11.479Z,3.13
2023-05-02T21:25:39.134Z,9.07
2023-05-02T21:28:06.265Z,7.25
2023-05-02T21:30:33.583Z,5.22
2023-05-02T21:33:00.600Z,6.15
2023-05-02T21:35:28.759Z,7.03
2023-05-02T21:37:55.813Z,6.05
2023-05-02T21:40:23.041Z,8.40
2023-05-02T21:42:50.058Z,4.15
2023-05-02T21:45:17.471Z,3.60
2023-05-02T21:47:44.563Z,8.60
2023-05-02T21:50:11.967Z,5.75
2023-05-02T21:52:39.040Z,5.07
2023-05-02T21:55:06.631Z,4.72
2023-05-02T21:57:33.567Z,7.68
2023-05-02T22:00:01.286Z,6.30
2023-05-02T22:02:28.485Z,10.13
2023-05-02T22:04:57.780Z,4.88
2023-05-02T22:07:25.066Z,4.95
2023-05-02T22:09:52.524Z,5.47
2023-05-02T22:12:20.142Z,6.55
2023-05-02T22:14:47.661Z,7.50
2023-05-02T22:17:17.224Z,9.18
2023-05-02T22:19:48.719Z,5.97
2023-05-02T22:22:15.741Z,9.32
2023-05-02T22:24:42.962Z,8.63
2023-05-02T22:27:09.908Z,7.57
2023-05-02T22:29:37.436Z,7.22
2023-05-02T22:32:04.504Z,7.00
2023-05-02T22:34:31.847Z,11.98
2023-05-02T22:36:58.823Z,9.50
2023-05-02T22:39:26.049Z,8.48
2023-05-02T22:41:53.027Z,7.47
2023-05-02T22:44:20.317Z,9.55
2023-05-02T22:46:47.608Z,9.95
2023-05-02T22:49:14.931Z,9.75
2023-05-02T22:51:42.413Z,10.27
2023-05-02T22:54:10.272Z,13.20
2023-05-02T22:56:37.427Z,9.25
2023-05-02T22:59:04.642Z,9.82
2023-05-02T23:01:31.775Z,8.32
2023-05-02T23:03:59.481Z,9.18
2023-05-02T23:06:28.402Z,10.75
2023-05-02T23:08:55.715Z,19.73
2023-05-02T23:11:22.666Z,10.07
2023-05-02T23:13:49.924Z,7.95
2023-05-02T23:16:16.881Z,10.00
2023-05-02T23:18:44.169Z,6.90
2023-05-02T23:21:15.582Z,10.45
2023-05-02T23:23:43.053Z,9.95
2023-05-02T23:26:10.837Z,13.52
2023-05-02T23:28:39.157Z,6.60
2023-05-02T23:31:07.233Z,10.93
2023-05-02T23:33:36.437Z,9.25
2023-05-02T23:36:03.929Z,7.57
2023-05-02T23:38:31.572Z,11.73
2023-05-02T23:40:58.884Z,7.95
2023-05-02T23:43:26.345Z,10.07
2023-05-02T23:45:53.508Z,9.32
2023-05-02T23:48:20.790Z,8.48
2023-05-02T23:50:47.908Z,8.45
2023-05-02T23:53:15.130Z,10.48
2023-05-02T23:55:42.161Z,11.20
2023-05-02T23:58:09.625Z,8.10
